Aérodrome :
LOGIN :

S'inscrire | Disclaimer

   EN    FR    IT 

 










Légende :    VFR   VFR Marginal   IFR   IFR Intensif   IFR Très Intensif
Visi : 
Plafond : 
>= 8 km
>= 3000ft
5 à 8 km
1000 à 3000 ft
1500m à 5 km
500 à 1000 ft
800 à 1500m
200 à 500 ft
< 800m
< 200 ft
Symboles :   Orages  Brouillard  Fortes neiges  Fortes précipitations  Vent > 20 kt
SIGMETs :   Divers  Orages  Givrage  Turbulence  Onde Orograph.  Cendres Volcan.






- Altitude de l'aérodrome : 144 ft
- Code IATA : PGF


LFMP - Perpignan

DERNIER METAR :
  • 131830Z AUTO 28016KT CAVOK 29/11 Q1017 TEMPO 32020G30KT

METARs EXPIRÉS :
  • 131800Z AUTO 29014KT CAVOK 30/10 Q1017 TEMPO BKN040TCU
  • 131730Z AUTO 29016KT CAVOK 30/09 Q1017 TEMPO BKN040TCU
  • 131700Z AUTO 30016G27KT 270V330 CAVOK 31/09 Q1017 TEMPO BKN040TCU BECMG 30012KT
  • 131630Z AUTO 31016KT 270V340 CAVOK 31/08 Q1017 TEMPO BKN040TCU

TAF TAF LFMP
Valide du 13 à 15h jusqu'au 14 à 15h UTC


131400Z 1315/1415 30012KT CAVOK
PROB30
TEMPO 1315/1319 BKN040TCU
TEMPO 1320/1406 32020G30KT
ATIS : +33 4 68 63 75 12



MET'MAP, la Météo Aéronautique d'un coup d'oeil ! - Copyright ORBIFLY Décembre 2007 - Disclaimer

ORBIFLY MET'MAP TEAM :

Programmation & Développement : Alexandra Zaïnal
Sur une idée originale de : Baudouin d'Aumeries
Assistance à la programmation : Marc-Olivier Méhu
Soutien technique & logistique : Manuel Goepfert

Contact : metmap@orbifly.com




SOURCES & CREDITS :

   NOAA